Time;durP1;ratioP1;P1;durP2;ratioP2;P2;SDS_P1;SDS_P2;PMS_P1;PMS_P2;Temp;Humidity;BMP_temperature;BMP_pressure;BME280_temperature;BME280_humidity;BME280_pressure;Samples;Min_cycle;Max_cycle;Signal;HPM_P1;HPM_P2
2022/10/09 00:00:25;;;;;;;8.03;4.13;;;17.30;54.60;;;;;;5121252;27;20216;-49
2022/10/09 00:02:50;;;;;;;7.40;4.17;;;17.20;54.20;;;;;;5113836;27;20194;-50
2022/10/09 00:05:16;;;;;;;5.40;4.00;;;17.30;54.30;;;;;;5103920;27;20594;-50
2022/10/09 00:07:42;;;;;;;4.37;3.97;;;17.30;54.00;;;;;;5122922;27;20211;-52
2022/10/09 00:10:07;;;;;;;3.80;3.40;;;17.30;54.00;;;;;;5120452;27;20198;-50
2022/10/09 00:12:33;;;;;;;4.90;4.07;;;17.30;53.70;;;;;;5114022;27;20190;-48
2022/10/09 00:14:58;;;;;;;5.50;3.93;;;17.20;53.50;;;;;;5122856;27;20262;-51
2022/10/09 00:17:24;;;;;;;5.30;3.50;;;17.20;53.60;;;;;;5124597;27;20641;-53
2022/10/09 00:19:49;;;;;;;4.00;3.70;;;17.20;53.60;;;;;;5114422;27;20346;-49
2022/10/09 00:22:15;;;;;;;4.90;3.97;;;17.10;53.60;;;;;;5115293;27;20186;-49
2022/10/09 00:24:42;;;;;;;4.80;4.37;;;17.10;53.70;;;;;;5116204;27;20245;-51
2022/10/09 00:27:07;;;;;;;10.50;4.47;;;17.00;53.70;;;;;;5126963;27;20192;-49
2022/10/09 00:29:33;;;;;;;3.90;3.60;;;16.90;53.80;;;;;;5122017;27;20436;-50
2022/10/09 00:31:58;;;;;;;4.77;3.30;;;16.90;53.90;;;;;;5114802;27;20197;-49
2022/10/09 00:34:24;;;;;;;5.33;3.57;;;16.80;54.30;;;;;;5123901;27;20198;-49
2022/10/09 00:36:49;;;;;;;4.80;3.20;;;16.80;54.70;;;;;;5122793;27;20206;-48
2022/10/09 00:39:15;;;;;;;7.63;4.10;;;16.70;55.30;;;;;;5119027;27;20194;-49
2022/10/09 00:41:41;;;;;;;6.00;3.43;;;16.60;54.80;;;;;;5125985;27;20221;-50
2022/10/09 00:44:43;;;;;;;7.30;3.63;;;16.50;54.90;;;;;;5119994;27;20733;-49
2022/10/09 00:47:22;;;;;;;5.70;3.47;;;16.30;55.00;;;;;;5114346;27;20691;-50
2022/10/09 00:49:51;;;;;;;4.97;3.90;;;16.20;55.20;;;;;;5124715;27;20848;-49
2022/10/09 00:52:17;;;;;;;6.43;3.90;;;16.10;55.40;;;;;;5121675;27;20472;-49
2022/10/09 00:54:43;;;;;;;3.80;3.50;;;16.00;55.70;;;;;;5122341;27;20436;-52
2022/10/09 00:57:10;;;;;;;7.90;3.70;;;15.90;56.10;;;;;;5117442;27;20468;-50
2022/10/09 00:59:36;;;;;;;6.97;4.53;;;15.80;56.00;;;;;;5118524;27;20438;-52
2022/10/09 01:02:02;;;;;;;8.43;3.93;;;15.80;56.00;;;;;;5116741;27;20444;-48
2022/10/09 01:04:28;;;;;;;4.20;3.80;;;15.80;56.20;;;;;;5117668;27;20532;-49
2022/10/09 01:07:04;;;;;;;6.77;3.73;;;15.70;56.40;;;;;;5092031;27;20195;-50
2022/10/09 01:09:41;;;;;;;6.30;5.10;;;15.60;56.40;;;;;;5123955;27;20202;-48
2022/10/09 01:12:07;;;;;;;6.80;3.80;;;15.60;56.50;;;;;;5120625;27;20575;-49
2022/10/09 01:14:50;;;;;;;5.20;3.90;;;15.50;56.50;;;;;;5123506;27;20561;-47
2022/10/09 01:17:23;;;;;;;6.10;3.20;;;15.50;56.50;;;;;;5102868;27;20649;-50
2022/10/09 01:20:09;;;;;;;8.50;4.00;;;15.40;56.60;;;;;;5120230;27;20435;-49
2022/10/09 01:22:49;;;;;;;7.80;4.00;;;15.50;56.60;;;;;;5118701;27;20439;-49
2022/10/09 01:25:34;;;;;;;5.43;3.50;;;15.40;56.50;;;;;;5112320;27;20482;-50
2022/10/09 01:28:04;;;;;;;4.27;3.87;;;15.30;57.00;;;;;;5117048;28;20480;-48
2022/10/09 01:30:31;;;;;;;4.73;3.57;;;15.30;56.40;;;;;;5116888;28;20467;-53
2022/10/09 01:32:58;;;;;;;6.30;3.87;;;15.20;56.20;;;;;;5112071;28;20482;-48
2022/10/09 01:35:24;;;;;;;9.23;3.77;;;15.20;56.20;;;;;;5120481;28;20525;-50
2022/10/09 01:37:52;;;;;;;5.80;3.90;;;15.10;56.30;;;;;;5123048;28;20814;-49
2022/10/09 01:40:18;;;;;;;6.90;3.67;;;15.10;56.20;;;;;;5119829;28;20572;-49
2022/10/09 01:42:45;;;;;;;6.47;3.97;;;15.10;56.10;;;;;;5119797;28;20451;-48
2022/10/09 01:45:12;;;;;;;3.40;3.10;;;15.00;56.30;;;;;;5118189;28;20596;-51
2022/10/09 01:47:38;;;;;;;3.80;3.40;;;15.00;56.60;;;;;;5108432;28;20456;-48
2022/10/09 01:50:08;;;;;;;5.30;3.20;;;14.90;56.50;;;;;;5126415;28;20694;-49
2022/10/09 01:52:51;;;;;;;8.10;3.33;;;14.80;57.20;;;;;;5099585;28;20218;-52
2022/10/09 01:55:47;;;;;;;11.40;4.90;;;14.70;57.20;;;;;;5121766;28;20486;-48
2022/10/09 01:58:21;;;;;;;4.93;4.13;;;14.70;57.20;;;;;;5114906;28;20452;-49
2022/10/09 02:01:17;;;;;;;4.30;3.50;;;14.70;57.20;;;;;;5116444;28;20467;-48
2022/10/09 02:03:46;;;;;;;5.60;3.47;;;14.70;57.20;;;;;;5117950;28;20496;-49
2022/10/09 02:06:14;;;;;;;5.03;3.33;;;14.70;56.80;;;;;;5118123;28;20517;-48
2022/10/09 02:08:43;;;;;;;5.67;3.23;;;14.70;56.50;;;;;;5116497;28;20443;-53
2022/10/09 02:11:10;;;;;;;3.67;3.37;;;14.70;56.30;;;;;;5124068;28;20442;-48
2022/10/09 02:13:37;;;;;;;6.77;3.73;;;14.60;56.30;;;;;;5121390;28;20439;-53
2022/10/09 02:16:08;;;;;;;4.10;3.70;;;14.60;56.30;;;;;;5123010;28;20440;-48
2022/10/09 02:18:41;;;;;;;9.10;3.30;;;14.60;56.50;;;;;;5115463;28;20448;-48
2022/10/09 02:21:23;;;;;;;5.47;3.40;;;14.50;56.60;;;;;;5114632;28;20439;-48
2022/10/09 02:23:50;;;;;;;3.90;3.60;;;14.50;56.80;;;;;;5117026;28;20460;-48
2022/10/09 02:26:17;;;;;;;5.33;3.23;;;14.50;56.70;;;;;;5122677;27;20478;-48
2022/10/09 02:28:43;;;;;;;5.70;3.60;;;14.40;56.70;;;;;;5121727;27;20451;-48
2022/10/09 02:31:27;;;;;;;3.70;3.40;;;14.40;56.80;;;;;;5124825;27;21039;-49
2022/10/09 02:33:57;;;;;;;6.23;3.40;;;14.40;56.80;;;;;;5125683;27;20482;-50
2022/10/09 02:36:23;;;;;;;4.13;3.73;;;14.40;56.80;;;;;;5125114;27;20812;-48
2022/10/09 02:38:48;;;;;;;2.97;2.67;;;14.40;56.90;;;;;;5121568;27;20447;-49
2022/10/09 02:41:14;;;;;;;6.07;3.63;;;14.30;56.90;;;;;;5122834;27;20451;-48
2022/10/09 02:43:39;;;;;;;3.73;3.37;;;14.30;56.90;;;;;;5116611;27;20305;-49
2022/10/09 02:46:05;;;;;;;7.27;4.07;;;14.30;56.90;;;;;;5114996;27;20226;-48
2022/10/09 02:48:31;;;;;;;3.37;3.07;;;14.30;56.80;;;;;;5121910;27;20194;-49
2022/10/09 02:50:56;;;;;;;4.73;3.30;;;14.30;56.80;;;;;;5122184;27;20190;-50
2022/10/09 02:53:22;;;;;;;5.20;3.70;;;14.20;56.80;;;;;;5128727;27;20197;-48
2022/10/09 02:55:47;;;;;;;3.90;3.53;;;14.20;57.00;;;;;;5129196;27;20198;-47
2022/10/09 02:58:13;;;;;;;4.83;3.70;;;14.20;57.10;;;;;;5121835;27;20182;-49
2022/10/09 03:00:38;;;;;;;5.13;3.30;;;14.10;57.00;;;;;;5120578;27;20665;-49
2022/10/09 03:03:04;;;;;;;10.23;3.87;;;14.10;57.00;;;;;;5127046;27;20229;-48
2022/10/09 03:05:30;;;;;;;3.60;3.30;;;14.00;56.80;;;;;;5127333;27;20633;-51
2022/10/09 03:07:55;;;;;;;4.93;3.63;;;14.10;57.00;;;;;;5120198;27;20189;-51
2022/10/09 03:10:21;;;;;;;3.83;3.53;;;14.10;56.90;;;;;;5119426;27;20251;-51
2022/10/09 03:12:47;;;;;;;5.43;3.40;;;14.00;56.80;;;;;;5126218;27;20178;-48
2022/10/09 03:15:14;;;;;;;3.23;2.93;;;13.90;56.70;;;;;;5113411;27;20309;-48
2022/10/09 03:17:40;;;;;;;5.80;3.80;;;13.90;56.90;;;;;;5117773;27;20523;-48
2022/10/09 03:20:06;;;;;;;5.43;3.60;;;13.90;56.80;;;;;;5122408;27;20450;-51
2022/10/09 03:22:32;;;;;;;6.80;3.70;;;13.90;56.80;;;;;;5122318;27;20186;-48
2022/10/09 03:24:57;;;;;;;5.90;3.87;;;13.90;56.70;;;;;;5122742;27;20998;-47
2022/10/09 03:27:23;;;;;;;4.30;3.50;;;13.90;56.70;;;;;;5121738;27;20599;-47
2022/10/09 03:29:48;;;;;;;7.17;3.93;;;13.80;56.70;;;;;;5119568;27;20194;-49
2022/10/09 03:32:14;;;;;;;5.70;4.33;;;13.80;56.80;;;;;;5116906;27;20198;-48
2022/10/09 03:34:40;;;;;;;3.93;3.60;;;13.80;56.70;;;;;;5126600;27;20193;-48
2022/10/09 03:37:05;;;;;;;4.90;3.20;;;13.70;56.60;;;;;;5123415;27;20235;-48
2022/10/09 03:39:31;;;;;;;6.80;3.80;;;13.70;56.60;;;;;;5119875;27;20288;-48
2022/10/09 03:41:57;;;;;;;6.90;3.67;;;13.70;56.50;;;;;;5118061;27;20594;-50
2022/10/09 03:44:22;;;;;;;4.10;2.97;;;13.70;56.50;;;;;;5126996;27;20222;-48
2022/10/09 03:46:48;;;;;;;5.57;3.40;;;13.70;56.50;;;;;;5118797;27;20443;-48
2022/10/09 03:49:14;;;;;;;3.93;3.57;;;13.60;56.80;;;;;;5124941;27;20203;-50
2022/10/09 03:51:40;;;;;;;3.53;2.90;;;13.60;56.80;;;;;;5104644;27;20609;-50
2022/10/09 03:54:06;;;;;;;6.93;3.30;;;13.50;56.80;;;;;;5120101;27;20459;-50
2022/10/09 03:56:31;;;;;;;6.73;3.03;;;13.50;56.90;;;;;;5127479;27;20683;-48
2022/10/09 03:58:57;;;;;;;5.90;3.40;;;13.50;56.90;;;;;;5127285;27;20308;-50
2022/10/09 04:01:22;;;;;;;4.23;3.30;;;13.50;56.90;;;;;;5118643;27;20869;-49
2022/10/09 04:03:48;;;;;;;4.53;3.23;;;13.50;56.90;;;;;;5119154;27;20338;-49
2022/10/09 04:06:14;;;;;;;5.03;3.40;;;13.50;56.70;;;;;;5117579;27;20226;-50
2022/10/09 04:08:39;;;;;;;3.43;2.93;;;13.50;56.40;;;;;;5124768;27;20735;-48
2022/10/09 04:11:05;;;;;;;3.50;3.20;;;13.50;56.20;;;;;;5122801;27;20243;-51
2022/10/09 04:13:30;;;;;;;2.90;2.70;;;13.50;56.00;;;;;;5120066;27;20203;-48
2022/10/09 04:15:56;;;;;;;5.50;3.40;;;13.50;56.00;;;;;;5125323;27;20205;-49
2022/10/09 04:18:22;;;;;;;3.90;3.47;;;13.40;56.30;;;;;;5120884;27;20199;-48
2022/10/09 04:20:50;;;;;;;4.37;3.80;;;13.40;56.70;;;;;;5120435;27;20591;-51
2022/10/09 04:23:16;;;;;;;4.80;4.30;;;13.40;56.80;;;;;;5117704;27;20544;-48
2022/10/09 04:25:42;;;;;;;3.80;3.50;;;13.40;57.00;;;;;;5125580;27;20494;-51
2022/10/09 04:28:07;;;;;;;5.90;4.27;;;13.30;57.10;;;;;;5117813;27;20431;-48
2022/10/09 04:30:33;;;;;;;5.67;3.97;;;13.30;57.10;;;;;;5113166;27;20197;-50
2022/10/09 04:32:58;;;;;;;4.10;3.70;;;13.30;57.30;;;;;;5121931;27;20224;-50
2022/10/09 04:35:24;;;;;;;9.77;4.10;;;13.30;57.00;;;;;;5122907;27;20712;-49
2022/10/09 04:37:49;;;;;;;20.57;12.23;;;13.30;56.90;;;;;;5125097;27;20879;-49
2022/10/09 04:40:15;;;;;;;6.43;4.37;;;13.30;56.80;;;;;;5125727;27;20213;-48
2022/10/09 04:42:41;;;;;;;4.57;4.20;;;13.30;56.80;;;;;;5119675;27;20204;-48
2022/10/09 04:45:07;;;;;;;6.17;4.37;;;13.20;56.60;;;;;;5122095;27;20229;-48
2022/10/09 04:47:33;;;;;;;7.30;4.37;;;13.20;56.80;;;;;;5118117;27;20651;-49
2022/10/09 04:49:59;;;;;;;4.03;3.73;;;13.20;56.90;;;;;;5119575;27;20428;-52
2022/10/09 04:52:25;;;;;;;5.03;3.80;;;13.20;57.00;;;;;;5123320;27;20431;-49
2022/10/09 04:54:50;;;;;;;4.63;4.20;;;13.10;57.00;;;;;;5119318;27;20202;-50
2022/10/09 04:57:16;;;;;;;7.37;4.90;;;13.00;57.20;;;;;;5121209;27;20451;-51
2022/10/09 04:59:41;;;;;;;7.07;3.70;;;13.00;57.10;;;;;;5129984;27;20186;-50
2022/10/09 05:02:07;;;;;;;5.40;4.70;;;13.10;57.70;;;;;;5119521;27;20186;-48
2022/10/09 05:04:32;;;;;;;7.70;6.83;;;13.00;56.80;;;;;;5113112;27;20210;-50
2022/10/09 05:06:58;;;;;;;8.53;6.00;;;13.00;56.70;;;;;;5114737;27;20182;-49
2022/10/09 05:09:24;;;;;;;7.23;5.90;;;13.00;56.50;;;;;;5125760;27;20280;-49
2022/10/09 05:11:49;;;;;;;7.10;6.13;;;12.90;56.40;;;;;;5123783;27;20245;-50
2022/10/09 05:14:16;;;;;;;5.50;4.00;;;12.90;56.30;;;;;;5122700;27;20194;-52
2022/10/09 05:16:41;;;;;;;4.40;3.73;;;12.90;56.30;;;;;;5117953;27;20306;-51
2022/10/09 05:19:07;;;;;;;5.47;4.50;;;12.90;56.50;;;;;;5115361;27;20500;-49
2022/10/09 05:21:32;;;;;;;4.27;3.80;;;12.90;56.50;;;;;;5125397;27;20893;-50
2022/10/09 05:23:58;;;;;;;5.00;4.00;;;12.80;56.70;;;;;;5120460;27;20237;-52
2022/10/09 05:26:24;;;;;;;6.00;3.53;;;12.80;57.10;;;;;;5115261;28;20199;-51
2022/10/09 05:28:50;;;;;;;7.73;3.80;;;12.70;57.20;;;;;;5119608;27;20701;-53
2022/10/09 05:31:22;;;;;;;4.13;3.73;;;12.70;57.20;;;;;;5116275;28;20511;-50
2022/10/09 05:33:48;;;;;;;6.13;3.70;;;12.70;57.20;;;;;;5120442;28;20439;-49
2022/10/09 05:36:14;;;;;;;4.63;3.80;;;12.70;57.00;;;;;;5122308;28;20947;-49
2022/10/09 05:38:40;;;;;;;4.93;3.80;;;12.70;57.00;;;;;;5124776;28;20435;-51
2022/10/09 05:41:07;;;;;;;5.67;4.33;;;12.80;57.00;;;;;;5116367;28;20512;-49
2022/10/09 05:43:35;;;;;;;4.13;3.73;;;12.70;56.90;;;;;;5121175;28;20200;-51
2022/10/09 05:46:04;;;;;;;5.17;4.57;;;12.70;56.90;;;;;;5113434;28;20483;-52
2022/10/09 05:48:30;;;;;;;4.63;4.10;;;12.50;57.20;;;;;;5112962;27;20443;-53
2022/10/09 05:51:06;;;;;;;5.03;4.13;;;12.50;57.10;;;;;;5119582;28;20440;-51
2022/10/09 05:53:32;;;;;;;4.33;3.93;;;12.50;56.80;;;;;;5117194;28;20186;-52
2022/10/09 05:56:07;;;;;;;5.97;4.53;;;12.50;56.70;;;;;;5120647;28;20428;-50
2022/10/09 05:58:33;;;;;;;6.90;4.20;;;12.60;56.90;;;;;;5115087;28;20197;-51
2022/10/09 06:01:01;;;;;;;5.00;3.70;;;12.60;56.80;;;;;;5116023;27;20443;-50
2022/10/09 06:03:27;;;;;;;20.93;3.80;;;12.70;57.30;;;;;;5122006;27;20238;-49
2022/10/09 06:05:59;;;;;;;6.93;3.90;;;12.90;57.40;;;;;;5128083;27;20487;-48
2022/10/09 06:08:25;;;;;;;7.43;3.67;;;13.10;57.20;;;;;;5128677;27;20191;-49
2022/10/09 06:10:50;;;;;;;4.27;3.97;;;13.30;56.50;;;;;;5121817;27;20508;-51
2022/10/09 06:13:16;;;;;;;5.00;4.10;;;13.40;55.80;;;;;;5118702;27;20199;-51
2022/10/09 06:15:51;;;;;;;3.10;2.70;;;13.60;55.20;;;;;;5119791;27;20191;-48
2022/10/09 06:18:17;;;;;;;4.60;3.47;;;13.60;62.20;;;;;;5118587;27;20676;-51
2022/10/09 06:20:55;;;;;;;5.57;3.60;;;13.80;60.40;;;;;;5117603;27;20431;-49
2022/10/09 06:23:21;;;;;;;7.27;3.97;;;14.20;57.40;;;;;;5114009;27;20236;-49
2022/10/09 06:25:59;;;;;;;3.30;3.00;;;14.60;55.70;;;;;;5112160;27;20475;-49
2022/10/09 06:28:25;;;;;;;6.27;3.50;;;15.00;54.60;;;;;;5115384;27;20190;-48
2022/10/09 06:30:51;;;;;;;4.50;3.83;;;15.30;53.30;;;;;;5122874;27;20488;-50
2022/10/09 06:33:16;;;;;;;6.70;3.60;;;15.60;52.70;;;;;;5131744;27;21836;-47
2022/10/09 06:35:42;;;;;;;6.17;3.47;;;15.80;52.00;;;;;;5131075;27;20186;-47
2022/10/09 06:38:08;;;;;;;3.80;3.43;;;16.10;51.40;;;;;;5124200;27;20704;-47
2022/10/09 06:40:37;;;;;;;4.57;3.30;;;16.30;50.70;;;;;;5130951;27;20431;-47
2022/10/09 06:43:04;;;;;;;3.60;3.30;;;16.60;50.10;;;;;;5133883;27;20551;-48
2022/10/09 06:45:30;;;;;;;3.70;3.40;;;16.80;49.90;;;;;;5125771;27;20491;-48
2022/10/09 06:47:56;;;;;;;4.23;3.80;;;17.00;49.30;;;;;;5126463;27;20811;-48
2022/10/09 06:50:22;;;;;;;3.07;2.87;;;17.10;48.80;;;;;;5128475;27;20497;-48
2022/10/09 06:52:48;;;;;;;3.97;3.57;;;17.30;48.00;;;;;;5128453;27;20194;-51
2022/10/09 06:55:14;;;;;;;5.20;3.40;;;17.50;47.70;;;;;;5126940;27;20435;-48
2022/10/09 06:57:40;;;;;;;4.67;3.20;;;17.70;47.40;;;;;;5114524;27;20321;-48
2022/10/09 07:00:06;;;;;;;3.30;3.10;;;17.80;46.90;;;;;;5126540;27;20202;-47
2022/10/09 07:02:32;;;;;;;6.10;3.40;;;18.00;46.90;;;;;;5131937;27;20190;-50
2022/10/09 07:04:57;;;;;;;3.73;3.43;;;18.20;46.60;;;;;;5121882;27;20516;-51
2022/10/09 07:07:23;;;;;;;3.60;3.20;;;18.30;46.40;;;;;;5114915;27;20220;-48
2022/10/09 07:09:49;;;;;;;3.77;3.10;;;18.50;46.10;;;;;;5119526;27;20188;-49
2022/10/09 07:12:14;;;;;;;5.37;3.33;;;18.60;45.90;;;;;;5126150;27;20189;-48
2022/10/09 07:14:40;;;;;;;3.63;3.37;;;18.70;45.90;;;;;;5122944;27;20217;-48
2022/10/09 07:17:06;;;;;;;4.00;3.57;;;18.80;45.70;;;;;;5122400;27;20205;-48
2022/10/09 07:19:31;;;;;;;5.07;3.80;;;18.90;45.70;;;;;;5120987;27;20197;-49
2022/10/09 07:21:57;;;;;;;3.90;3.50;;;19.00;45.70;;;;;;5118618;27;20195;-47
2022/10/09 07:24:24;;;;;;;3.97;3.23;;;19.10;45.70;;;;;;5125573;27;20567;-49
2022/10/09 07:26:49;;;;;;;3.57;3.27;;;19.30;46.00;;;;;;5129774;27;20186;-48
2022/10/09 07:29:17;;;;;;;3.40;3.10;;;19.40;46.00;;;;;;5124883;27;20435;-48
2022/10/09 07:31:43;;;;;;;4.30;3.70;;;19.40;46.30;;;;;;5124634;27;20202;-49
2022/10/09 07:34:09;;;;;;;3.70;3.40;;;19.50;46.30;;;;;;5126443;27;20444;-50
2022/10/09 07:36:35;;;;;;;4.20;3.50;;;19.60;46.00;;;;;;5124202;27;20984;-48
2022/10/09 07:39:02;;;;;;;6.23;4.20;;;19.70;45.50;;;;;;5117805;27;20217;-51
2022/10/09 07:41:33;;;;;;;3.37;3.10;;;19.70;45.30;;;;;;5118473;27;20197;-52
2022/10/09 07:43:58;;;;;;;3.73;3.40;;;19.70;45.30;;;;;;5120814;27;20918;-47
2022/10/09 07:46:26;;;;;;;5.43;3.20;;;19.70;45.40;;;;;;5125935;27;20529;-48
2022/10/09 07:48:51;;;;;;;4.27;3.80;;;19.20;46.90;;;;;;5129789;27;20247;-47
2022/10/09 07:51:23;;;;;;;4.37;3.30;;;19.10;48.30;;;;;;5123613;27;20912;-49
2022/10/09 07:53:49;;;;;;;5.97;4.00;;;19.20;48.30;;;;;;5120661;27;20201;-47
2022/10/09 07:56:20;;;;;;;3.63;3.30;;;19.20;48.30;;;;;;5127246;27;20958;-49
2022/10/09 07:58:54;;;;;;;8.27;4.03;;;19.10;48.50;;;;;;5119670;27;20456;-46
2022/10/09 08:01:21;;;;;;;5.10;3.70;;;19.00;49.20;;;;;;5118166;27;20500;-48
2022/10/09 08:03:47;;;;;;;6.23;3.27;;;18.40;50.20;;;;;;5120275;27;20435;-48
2022/10/09 08:06:13;;;;;;;3.80;3.50;;;18.10;50.90;;;;;;5123619;27;20620;-49
2022/10/09 08:08:39;;;;;;;6.90;3.70;;;18.10;51.30;;;;;;5121152;27;20444;-48
2022/10/09 08:11:13;;;;;;;3.47;3.17;;;18.10;51.90;;;;;;5101884;27;20195;-50
2022/10/09 08:13:40;;;;;;;7.60;3.33;;;18.30;51.50;;;;;;5114175;27;20185;-48
2022/10/09 08:16:06;;;;;;;5.53;4.20;;;18.20;51.30;;;;;;5118420;27;20507;-48
2022/10/09 08:18:32;;;;;;;7.33;4.00;;;18.20;51.50;;;;;;5117912;27;20437;-50
2022/10/09 08:21:05;;;;;;;5.10;2.83;;;18.40;51.20;;;;;;5122350;27;20994;-51
2022/10/09 08:23:31;;;;;;;4.67;3.43;;;18.30;51.00;;;;;;5116843;27;20959;-48
2022/10/09 08:25:56;;;;;;;4.97;2.93;;;18.50;50.70;;;;;;5103823;27;20483;-49
2022/10/09 08:28:22;;;;;;;4.13;3.73;;;18.40;51.20;;;;;;5127098;27;20269;-49
2022/10/09 08:30:48;;;;;;;2.70;2.50;;;18.50;50.90;;;;;;5124302;27;20233;-51
2022/10/09 08:33:14;;;;;;;3.43;3.10;;;18.50;50.40;;;;;;5117859;27;20269;-51
2022/10/09 08:35:40;;;;;;;3.43;3.13;;;18.10;50.60;;;;;;5115968;27;20221;-50
2022/10/09 08:38:05;;;;;;;4.60;3.57;;;17.90;51.50;;;;;;5119364;27;20479;-51
2022/10/09 08:40:47;;;;;;;3.77;3.13;;;17.70;51.80;;;;;;5112066;28;20219;-48
2022/10/09 08:43:17;;;;;;;4.50;3.00;;;17.60;51.50;;;;;;5123524;27;20221;-47
2022/10/09 08:45:46;;;;;;;5.43;3.10;;;17.70;52.10;;;;;;5123010;27;20970;-49
2022/10/09 08:48:17;;;;;;;3.10;2.80;;;17.90;51.70;;;;;;5118451;27;20447;-49
2022/10/09 08:50:47;;;;;;;2.87;2.67;;;17.60;51.60;;;;;;5118286;27;20914;-49
2022/10/09 08:53:43;;;;;;;3.97;2.53;;;17.60;52.10;;;;;;5110942;27;20448;-48
2022/10/09 08:56:13;;;;;;;4.90;2.53;;;17.80;52.50;;;;;;5118030;27;20804;-48
2022/10/09 08:58:41;;;;;;;3.03;2.60;;;18.30;50.60;;;;;;5118085;27;20416;-49
2022/10/09 09:01:18;;;;;;;3.57;2.90;;;18.20;50.90;;;;;;5124118;27;20421;-48
2022/10/09 09:03:58;;;;;;;2.60;2.40;;;18.50;50.40;;;;;;5112815;27;20448;-47
2022/10/09 09:06:39;;;;;;;5.53;3.00;;;18.30;50.00;;;;;;5115919;27;20880;-50
2022/10/09 09:09:10;;;;;;;2.73;2.53;;;18.20;50.50;;;;;;5114208;27;20420;-49
2022/10/09 09:11:55;;;;;;;5.33;3.00;;;18.40;50.60;;;;;;5114255;27;20447;-47
2022/10/09 09:14:58;;;;;;;3.30;2.43;;;18.50;49.70;;;;;;5113677;27;20915;-49
2022/10/09 09:17:32;;;;;;;6.23;3.37;;;18.60;50.20;;;;;;5120157;27;20541;-49
2022/10/09 09:20:09;;;;;;;3.50;2.80;;;18.80;49.20;;;;;;5115606;27;20814;-48
2022/10/09 09:22:38;;;;;;;3.60;2.70;;;18.90;48.50;;;;;;5117770;27;20516;-49
2022/10/09 09:25:16;;;;;;;3.67;2.70;;;19.20;48.00;;;;;;5118984;28;20579;-47
2022/10/09 09:27:43;;;;;;;5.00;2.40;;;19.40;48.10;;;;;;5111833;27;20437;-48
2022/10/09 09:30:11;;;;;;;5.00;2.90;;;19.60;47.20;;;;;;5119138;27;20467;-47
2022/10/09 09:32:52;;;;;;;5.73;2.77;;;19.40;47.30;;;;;;5124278;27;21004;-48
2022/10/09 09:35:48;;;;;;;4.10;2.40;;;19.80;47.10;;;;;;5122510;28;20577;-48
2022/10/09 09:38:14;;;;;;;3.43;2.43;;;19.80;46.50;;;;;;5104527;28;20459;-47
2022/10/09 09:40:42;;;;;;;3.00;2.00;;;19.80;46.00;;;;;;5126864;28;20914;-48
2022/10/09 09:43:19;;;;;;;4.10;2.53;;;20.20;46.00;;;;;;5120501;28;20448;-51
2022/10/09 09:45:46;;;;;;;4.50;2.57;;;20.00;45.10;;;;;;5111346;28;20531;-49
2022/10/09 09:48:31;;;;;;;4.23;2.77;;;20.00;45.60;;;;;;5127305;28;20436;-48
2022/10/09 09:50:56;;;;;;;5.17;2.30;;;20.40;45.30;;;;;;5123832;28;20975;-50
2022/10/09 09:53:32;;;;;;;3.70;2.10;;;20.70;45.00;;;;;;5124031;28;20443;-48
2022/10/09 09:55:58;;;;;;;3.80;1.90;;;21.20;44.20;;;;;;5125042;28;20690;-49
2022/10/09 09:58:53;;;;;;;2.80;2.33;;;21.20;42.80;;;;;;5115412;28;20439;-47
2022/10/09 10:01:25;;;;;;;2.70;1.93;;;21.30;43.50;;;;;;5114462;28;20455;-47
2022/10/09 10:03:54;;;;;;;3.30;2.10;;;21.50;42.80;;;;;;5116915;28;20456;-49
2022/10/09 10:06:24;;;;;;;3.03;1.90;;;21.80;41.80;;;;;;5125234;28;20534;-48
2022/10/09 10:09:03;;;;;;;4.73;2.20;;;22.00;41.00;;;;;;5115060;28;20435;-49
2022/10/09 10:11:31;;;;;;;3.70;1.80;;;22.30;41.40;;;;;;5125850;28;20541;-53
2022/10/09 10:14:03;;;;;;;3.17;2.00;;;22.10;39.90;;;;;;5114864;28;20488;-51
2022/10/09 10:16:32;;;;;;;2.40;1.80;;;22.00;41.50;;;;;;5124722;28;20443;-50
2022/10/09 10:18:58;;;;;;;2.33;1.90;;;22.40;41.20;;;;;;5128065;28;20439;-48
2022/10/09 10:21:23;;;;;;;3.30;2.30;;;22.30;39.60;;;;;;5129413;28;20447;-49
2022/10/09 10:24:03;;;;;;;3.53;1.70;;;22.30;40.00;;;;;;5118827;28;20574;-51
2022/10/09 10:26:33;;;;;;;2.30;2.10;;;22.40;40.10;;;;;;5104240;28;20233;-51
2022/10/09 10:29:27;;;;;;;1.60;1.50;;;22.60;40.20;;;;;;5111425;28;20654;-48
2022/10/09 10:32:11;;;;;;;3.70;1.67;;;22.90;39.20;;;;;;5126117;28;20432;-49
2022/10/09 10:34:47;;;;;;;3.27;1.57;;;22.60;39.20;;;;;;5113227;28;21076;-51
2022/10/09 10:37:13;;;;;;;2.70;1.50;;;22.60;39.70;;;;;;5115183;28;20459;-49
2022/10/09 10:40:04;;;;;;;2.60;1.93;;;22.30;39.10;;;;;;5120560;28;20440;-51
2022/10/09 10:42:44;;;;;;;3.33;2.00;;;22.10;39.60;;;;;;5098339;28;21189;-50
2022/10/09 10:45:21;;;;;;;4.07;1.90;;;22.50;39.40;;;;;;5115493;28;20483;-48
2022/10/09 10:47:56;;;;;;;4.00;1.77;;;22.40;38.50;;;;;;5113406;28;20777;-50
2022/10/09 10:50:25;;;;;;;3.27;1.80;;;22.00;40.20;;;;;;5127048;27;20458;-51
2022/10/09 10:53:02;;;;;;;6.00;2.60;;;22.00;39.70;;;;;;5130581;27;20435;-48
2022/10/09 10:55:51;;;;;;;2.87;2.47;;;22.40;42.40;;;;;;5126373;27;20470;-49
2022/10/09 10:58:29;;;;;;;2.33;2.13;;;23.00;42.20;;;;;;5122371;27;20455;-49
2022/10/09 11:01:27;;;;;;;2.20;1.90;;;23.70;39.10;;;;;;5126727;27;22462;-50
2022/10/09 11:04:11;;;;;;;3.30;1.70;;;24.10;40.50;;;;;;5124538;27;20489;-52
2022/10/09 11:07:03;;;;;;;4.50;1.60;;;24.70;37.80;;;;;;5124638;27;20450;-51
2022/10/09 11:09:43;;;;;;;2.40;1.50;;;24.80;37.70;;;;;;5072374;28;20835;-51
2022/10/09 11:12:19;;;;;;;2.40;2.10;;;25.10;37.30;;;;;;5123327;27;20440;-51
2022/10/09 11:14:59;;;;;;;1.73;1.53;;;25.40;37.50;;;;;;5116446;27;20782;-52
2022/10/09 11:17:44;;;;;;;2.10;1.50;;;25.80;37.70;;;;;;5121024;27;20436;-49
2022/10/09 11:20:54;;;;;;;3.50;1.80;;;26.00;37.20;;;;;;5118439;27;20455;-51
2022/10/09 11:23:20;;;;;;;3.63;1.53;;;26.40;36.80;;;;;;5049911;28;20521;-50
2022/10/09 11:26:07;;;;;;;2.30;1.40;;;26.20;35.60;;;;;;5108701;27;20482;-51
2022/10/09 11:28:50;;;;;;;4.20;1.50;;;26.20;35.40;;;;;;5132200;27;20190;-53
2022/10/09 11:31:20;;;;;;;2.43;1.70;;;26.50;36.20;;;;;;5126934;27;20820;-51
2022/10/09 11:33:50;;;;;;;1.63;1.47;;;26.50;36.40;;;;;;5133421;27;20435;-50
2022/10/09 11:36:45;;;;;;;3.13;1.60;;;26.90;35.80;;;;;;5125296;27;20474;-51
2022/10/09 11:39:22;;;;;;;1.73;1.60;;;27.10;34.80;;;;;;5122279;27;20452;-51
2022/10/09 11:41:50;;;;;;;3.07;1.77;;;27.10;34.50;;;;;;5112489;28;20440;-51
2022/10/09 11:45:03;;;;;;;3.30;1.80;;;27.10;34.90;;;;;;5098197;28;20533;-52
2022/10/09 11:48:11;;;;;;;2.97;1.43;;;27.30;34.20;;;;;;5103620;27;20462;-50
2022/10/09 11:50:55;;;;;;;4.83;1.63;;;27.30;33.60;;;;;;5119511;27;20509;-51
2022/10/09 11:53:23;;;;;;;3.13;1.60;;;27.30;33.90;;;;;;5117358;27;20466;-52
2022/10/09 11:56:00;;;;;;;1.80;1.53;;;27.20;33.50;;;;;;5119226;27;20436;-48
2022/10/09 11:58:26;;;;;;;1.97;1.60;;;27.10;34.30;;;;;;5132548;27;20839;-52
2022/10/09 12:01:08;;;;;;;2.67;1.50;;;27.20;33.80;;;;;;5121857;27;20443;-51
2022/10/09 12:03:36;;;;;;;2.20;1.50;;;27.30;33.60;;;;;;5113811;27;20204;-52
2022/10/09 12:06:14;;;;;;;3.17;1.47;;;27.10;32.60;;;;;;5121372;27;20519;-51
2022/10/09 12:09:00;;;;;;;1.90;1.20;;;26.90;33.40;;;;;;5112502;27;20481;-48
2022/10/09 12:11:27;;;;;;;2.50;1.30;;;26.90;33.40;;;;;;5112658;27;20986;-51
2022/10/09 12:14:02;;;;;;;1.40;1.30;;;27.10;34.20;;;;;;5125166;27;20481;-51
2022/10/09 12:16:33;;;;;;;1.90;1.40;;;27.20;33.60;;;;;;5120636;27;20443;-48
2022/10/09 12:19:02;;;;;;;1.77;1.40;;;27.20;33.90;;;;;;5126234;27;20957;-50
2022/10/09 12:21:34;;;;;;;3.27;2.10;;;27.30;33.40;;;;;;5119550;27;20465;-49
2022/10/09 12:24:00;;;;;;;1.40;1.30;;;27.30;32.80;;;;;;5117167;27;20499;-52
2022/10/09 12:26:26;;;;;;;2.00;1.43;;;27.30;33.00;;;;;;5129834;27;20516;-51
2022/10/09 12:28:58;;;;;;;1.30;1.20;;;27.40;33.30;;;;;;5124440;27;20451;-50
2022/10/09 12:31:37;;;;;;;1.13;1.10;;;27.40;33.90;;;;;;5127722;27;20682;-52
2022/10/09 12:34:23;;;;;;;4.50;1.33;;;27.40;34.20;;;;;;5121260;27;20919;-50
2022/10/09 12:36:49;;;;;;;2.27;1.40;;;27.50;32.80;;;;;;5115029;27;21019;-49
2022/10/09 12:39:20;;;;;;;3.03;1.57;;;27.60;33.20;;;;;;5116338;27;20436;-49
2022/10/09 12:41:49;;;;;;;3.37;1.90;;;27.50;33.10;;;;;;5126159;27;20239;-48
2022/10/09 12:44:27;;;;;;;2.70;2.00;;;27.50;32.30;;;;;;5126103;27;20427;-49
2022/10/09 12:46:54;;;;;;;3.80;1.43;;;27.50;32.40;;;;;;5121008;27;20452;-48
2022/10/09 12:49:23;;;;;;;4.17;1.67;;;27.40;33.80;;;;;;5122566;27;20562;-48
2022/10/09 12:51:54;;;;;;;1.90;1.40;;;27.60;33.50;;;;;;5124055;27;20435;-48
2022/10/09 12:54:20;;;;;;;1.33;1.23;;;27.60;31.70;;;;;;5129428;27;20867;-51
2022/10/09 12:56:47;;;;;;;1.90;1.13;;;27.40;33.60;;;;;;5119278;27;20531;-50
2022/10/09 12:59:13;;;;;;;1.40;1.30;;;27.40;34.10;;;;;;5126768;27;20879;-50
2022/10/09 13:01:41;;;;;;;2.83;1.50;;;27.60;33.80;;;;;;5124369;27;20451;-49